createdAt,value
2022-09-26T00:02:19.908Z,7.60
2022-09-26T00:04:46.264Z,7.60
2022-09-26T00:07:12.523Z,7.50
2022-09-26T00:09:41.481Z,7.50
2022-09-26T00:12:07.698Z,7.40
2022-09-26T00:32:41.455Z,7.40
2022-09-26T00:35:08.341Z,7.30
2022-09-26T00:37:36.065Z,7.30
2022-09-26T00:40:28.151Z,7.30
2022-09-26T00:42:55.188Z,7.30
2022-09-26T00:45:23.693Z,7.20
2022-09-26T00:48:02.929Z,7.20
2022-09-26T00:50:41.595Z,7.20
2022-09-26T00:53:21.149Z,7.20
2022-09-26T01:01:44.721Z,7.40
2022-09-26T01:04:12.749Z,7.30
2022-09-26T01:06:39.465Z,7.30
2022-09-26T01:09:09.301Z,7.20
2022-09-26T01:11:37.886Z,7.10
2022-09-26T01:14:07.329Z,7.10
2022-09-26T01:16:47.284Z,7.10
2022-09-26T01:19:32.582Z,7.10
2022-09-26T02:14:43.733Z,6.80
2022-09-26T02:17:17.476Z,6.80
2022-09-26T02:19:52.351Z,6.80
2022-09-26T02:22:19.299Z,6.80
2022-09-26T02:24:45.618Z,6.80
2022-09-26T02:27:12.686Z,6.90
2022-09-26T02:29:39.960Z,6.90
2022-09-26T02:32:18.405Z,6.90
2022-09-26T02:34:47.874Z,6.80
2022-09-26T02:37:16.993Z,6.80
2022-09-26T02:50:42.988Z,6.70
2022-09-26T02:53:09.877Z,7.00
2022-09-26T02:55:48.465Z,7.00
2022-09-26T02:58:35.226Z,7.00
2022-09-26T03:01:31.511Z,7.00
2022-09-26T03:04:29.170Z,6.90
2022-09-26T03:06:59.935Z,6.90
2022-09-26T03:53:23.598Z,7.00
2022-09-26T03:56:05.522Z,7.10
2022-09-26T03:58:31.993Z,7.10
2022-09-26T04:01:07.399Z,7.00
2022-09-26T04:03:35.411Z,7.00
2022-09-26T04:06:02.356Z,7.00
2022-09-26T04:08:28.714Z,7.00
2022-09-26T04:11:09.232Z,7.10
2022-09-26T04:13:53.562Z,7.10
2022-09-26T04:21:21.545Z,7.10
2022-09-26T04:23:49.488Z,7.10
2022-09-26T04:26:22.541Z,7.10
2022-09-26T04:28:53.922Z,7.10
2022-09-26T04:31:45.262Z,7.10
2022-09-26T04:34:12.172Z,7.20
2022-09-26T04:36:38.428Z,7.10
2022-09-26T04:44:42.722Z,7.10
2022-09-26T04:47:10.640Z,7.20
2022-09-26T04:49:42.443Z,7.20
2022-09-26T04:52:20.391Z,7.20
2022-09-26T04:54:46.834Z,7.20
2022-09-26T04:57:19.383Z,7.10
2022-09-26T04:59:46.269Z,7.20
2022-09-26T05:02:13.034Z,7.20
2022-09-26T05:22:48.735Z,7.70
2022-09-26T05:25:33.833Z,7.80
2022-09-26T05:28:02.395Z,7.80
2022-09-26T05:30:35.991Z,7.80
2022-09-26T05:33:02.363Z,7.90
2022-09-26T05:35:28.561Z,7.90
2022-09-26T05:38:02.778Z,8.00
2022-09-26T05:40:48.379Z,8.00
2022-09-26T06:09:12.188Z,8.50
2022-09-26T06:11:38.695Z,8.60
2022-09-26T06:14:06.414Z,8.60
2022-09-26T06:16:32.664Z,8.60
2022-09-26T06:19:00.319Z,8.70
2022-09-26T06:21:30.327Z,8.70
2022-09-26T06:23:56.734Z,8.90
2022-09-26T06:26:25.308Z,9.10
2022-09-26T06:33:23.645Z,9.10
2022-09-26T06:36:04.328Z,9.10
2022-09-26T06:38:30.828Z,9.20
2022-09-26T06:41:00.333Z,9.10
2022-09-26T06:43:27.010Z,9.00
2022-09-26T06:45:53.193Z,9.00
2022-09-26T06:48:24.835Z,9.10
2022-09-26T06:50:56.297Z,9.20
2022-09-26T07:14:20.903Z,10.40
2022-09-26T07:16:51.326Z,10.50
2022-09-26T07:19:17.873Z,10.50
2022-09-26T07:21:45.555Z,10.50
2022-09-26T07:24:13.534Z,10.60
2022-09-26T07:26:43.348Z,10.70
2022-09-26T07:37:18.702Z,10.90
2022-09-26T07:39:45.113Z,11.10
2022-09-26T07:42:13.574Z,11.40
2022-09-26T07:47:45.083Z,11.70
2022-09-26T07:50:12.246Z,11.70
2022-09-26T07:52:49.349Z,11.60
2022-09-26T08:00:32.510Z,12.00
2022-09-26T08:03:00.957Z,12.50
2022-09-26T08:05:27.265Z,12.70
2022-09-26T08:07:53.748Z,13.10
2022-09-26T08:10:23.326Z,13.30
2022-09-26T08:12:50.002Z,13.60
2022-09-26T08:15:16.288Z,13.80
2022-09-26T08:17:42.718Z,13.90
2022-09-26T08:25:17.474Z,14.20
2022-09-26T08:27:47.727Z,14.20
2022-09-26T08:30:14.677Z,14.20
2022-09-26T08:33:02.560Z,14.30
2022-09-26T08:35:35.002Z,14.40
2022-09-26T08:38:02.390Z,14.30
2022-09-26T08:40:36.810Z,14.40
2022-09-26T08:56:42.868Z,14.50
2022-09-26T08:59:43.463Z,14.70
2022-09-26T09:02:37.164Z,14.50
2022-09-26T09:05:32.977Z,14.50
2022-09-26T09:08:02.425Z,14.70
2022-09-26T09:11:11.067Z,15.00
2022-09-26T09:13:47.346Z,15.30
2022-09-26T09:22:07.186Z,15.90
2022-09-26T09:24:45.646Z,16.00
2022-09-26T09:30:19.565Z,16.60
2022-09-26T09:33:09.291Z,17.00
2022-09-26T09:35:50.457Z,16.90
2022-09-26T09:57:23.176Z,17.40
2022-09-26T10:00:23.334Z,17.30
2022-09-26T10:03:10.519Z,17.30
2022-09-26T10:06:45.595Z,17.80
2022-09-26T10:09:35.460Z,18.20
2022-09-26T10:12:17.869Z,18.40
2022-09-26T10:18:53.651Z,18.70
2022-09-26T10:21:21.396Z,18.80
2022-09-26T10:24:06.086Z,19.00
2022-09-26T10:26:34.307Z,19.10
2022-09-26T10:29:19.594Z,19.40
2022-09-26T10:31:54.695Z,19.10
2022-09-26T10:34:37.138Z,18.70
2022-09-26T10:51:24.155Z,19.00
2022-09-26T10:53:59.214Z,19.50
2022-09-26T10:56:30.007Z,19.40
2022-09-26T10:59:09.732Z,19.80
2022-09-26T11:01:42.409Z,19.70
2022-09-26T11:04:39.112Z,20.10
2022-09-26T11:12:29.459Z,19.60
2022-09-26T11:15:10.581Z,19.50
2022-09-26T11:17:44.502Z,19.70
2022-09-26T11:20:34.555Z,20.20
2022-09-26T11:23:07.101Z,20.70
2022-09-26T11:37:55.203Z,19.90
2022-09-26T12:11:48.528Z,20.30
2022-09-26T12:14:51.627Z,20.80
2022-09-26T12:17:53.253Z,21.00
2022-09-26T12:21:00.365Z,21.00
2022-09-26T12:23:31.560Z,21.30
2022-09-26T12:26:34.018Z,20.70
2022-09-26T12:47:51.639Z,21.20
2022-09-26T12:50:32.941Z,21.50
2022-09-26T12:53:29.909Z,21.70
2022-09-26T13:02:18.897Z,21.40
2022-09-26T13:10:05.421Z,21.40
2022-09-26T13:13:13.370Z,21.60
2022-09-26T13:15:48.889Z,21.50
2022-09-26T13:18:25.847Z,21.50
2022-09-26T13:20:58.343Z,21.30
2022-09-26T13:23:51.833Z,21.30
2022-09-26T13:30:24.504Z,20.50
2022-09-26T13:33:02.595Z,20.40
2022-09-26T13:35:35.016Z,20.40
2022-09-26T13:38:39.934Z,20.40
2022-09-26T13:41:22.183Z,20.40
2022-09-26T14:23:20.503Z,18.60
2022-09-26T14:26:41.465Z,18.60
2022-09-26T14:29:25.137Z,18.50
2022-09-26T14:32:11.565Z,18.50
2022-09-26T14:35:47.722Z,18.30
2022-09-26T14:38:49.765Z,18.20
2022-09-26T14:41:34.012Z,18.10
2022-09-26T14:49:35.199Z,17.90
2022-09-26T14:52:20.963Z,17.80
2022-09-26T14:55:06.309Z,17.70
2022-09-26T14:57:47.937Z,17.70
2022-09-26T15:00:42.278Z,17.60
2022-09-26T15:03:23.862Z,17.50
2022-09-26T15:08:49.450Z,17.30
2022-09-26T15:11:44.930Z,17.20
2022-09-26T15:14:40.463Z,17.20
2022-09-26T15:17:31.982Z,17.10
2022-09-26T15:20:17.616Z,17.10
2022-09-26T15:23:00.687Z,17.10
2022-09-26T15:31:21.446Z,17.10
2022-09-26T15:34:36.002Z,17.00
2022-09-26T15:37:22.272Z,17.10
2022-09-26T15:40:17.906Z,17.00
2022-09-26T15:43:19.675Z,17.00
2022-09-26T15:46:05.779Z,17.00
2022-09-26T15:54:06.185Z,17.00
2022-09-26T15:56:48.341Z,16.80
2022-09-26T15:59:41.327Z,16.70
2022-09-26T16:02:35.784Z,16.70
2022-09-26T16:05:20.486Z,16.60
2022-09-26T16:08:01.593Z,16.50
2022-09-26T16:10:44.853Z,16.50
2022-09-26T16:19:03.456Z,16.30
2022-09-26T16:21:44.524Z,16.30
2022-09-26T16:24:33.419Z,16.20
2022-09-26T16:27:25.663Z,16.20
2022-09-26T16:30:27.849Z,16.00
2022-09-26T16:33:08.879Z,15.90
2022-09-26T16:36:18.465Z,15.80
2022-09-26T16:39:02.981Z,15.70
2022-09-26T16:44:40.359Z,15.60
2022-09-26T16:47:42.366Z,15.60
2022-09-26T16:50:27.542Z,15.60
2022-09-26T16:53:18.173Z,15.60
2022-09-26T16:55:59.326Z,15.60
2022-09-26T16:59:03.213Z,15.80
2022-09-26T17:01:54.126Z,15.70
2022-09-26T17:09:54.865Z,15.50
2022-09-26T17:13:21.060Z,15.50
2022-09-26T17:16:04.063Z,15.40
2022-09-26T17:18:45.256Z,15.30
2022-09-26T17:21:27.810Z,15.20
2022-09-26T17:24:16.502Z,15.20
2022-09-26T17:26:59.979Z,15.20
2022-09-26T17:29:47.821Z,15.20
2022-09-26T17:32:34.260Z,15.30
2022-09-26T17:50:49.029Z,15.40
2022-09-26T17:53:36.575Z,15.30
2022-09-26T17:56:21.474Z,15.30
2022-09-26T17:59:09.057Z,15.30
2022-09-26T18:01:53.813Z,15.20
2022-09-26T18:04:34.986Z,15.20
2022-09-26T18:07:16.195Z,15.20
2022-09-26T18:09:58.221Z,15.20
2022-09-26T18:20:39.184Z,14.90
2022-09-26T18:23:28.381Z,14.90
2022-09-26T18:26:33.201Z,14.90
2022-09-26T18:29:20.306Z,15.00
2022-09-26T18:32:04.241Z,15.10
2022-09-26T18:34:45.819Z,14.90
2022-09-26T18:37:28.999Z,14.70
2022-09-26T18:40:14.831Z,14.60
2022-09-26T18:47:27.881Z,14.40
2022-09-26T18:50:17.875Z,14.30
2022-09-26T18:52:59.202Z,14.20
2022-09-26T18:55:58.977Z,14.20
2022-09-26T18:58:40.202Z,14.10
2022-09-26T19:01:34.093Z,13.90
2022-09-26T19:04:22.174Z,13.80
2022-09-26T19:12:30.820Z,13.40
2022-09-26T19:15:14.181Z,13.20
2022-09-26T19:17:55.406Z,13.10
2022-09-26T19:20:36.478Z,13.00
2022-09-26T19:23:17.587Z,13.00
2022-09-26T19:25:58.760Z,12.90
2022-09-26T19:28:39.988Z,12.90
2022-09-26T19:36:26.095Z,12.80
2022-09-26T19:39:14.662Z,12.80
2022-09-26T19:41:55.734Z,12.90
2022-09-26T19:44:36.800Z,12.80
2022-09-26T19:47:20.772Z,12.80
2022-09-26T19:50:17.325Z,12.80
2022-09-26T19:52:58.881Z,12.80
2022-09-26T19:55:39.986Z,12.80
2022-09-26T19:58:24.075Z,12.80
2022-09-26T20:06:22.361Z,12.80
2022-09-26T20:09:05.297Z,12.80
2022-09-26T20:11:46.412Z,12.80
2022-09-26T20:14:27.663Z,12.70
2022-09-26T20:17:17.413Z,12.70
2022-09-26T20:19:59.224Z,12.70
2022-09-26T20:35:47.392Z,12.60
2022-09-26T20:38:49.229Z,12.60
2022-09-26T20:41:39.044Z,12.60
2022-09-26T20:44:27.799Z,12.60
2022-09-26T20:47:10.409Z,12.40
2022-09-26T20:50:01.502Z,12.40
2022-09-26T21:08:29.544Z,12.30
2022-09-26T21:11:16.107Z,12.00
2022-09-26T21:13:59.550Z,11.90
2022-09-26T21:16:51.686Z,11.70
2022-09-26T21:19:32.941Z,11.60
2022-09-26T21:22:14.173Z,11.60
2022-09-26T21:29:57.235Z,11.50
2022-09-26T21:32:44.228Z,11.50
2022-09-26T21:35:29.668Z,11.40
2022-09-26T21:38:10.837Z,11.50
2022-09-26T21:40:56.012Z,11.50
2022-09-26T21:43:41.050Z,11.50
2022-09-26T21:49:26.909Z,11.50
2022-09-26T21:52:30.406Z,11.40
2022-09-26T21:55:17.149Z,11.40
2022-09-26T21:58:02.843Z,11.50
2022-09-26T22:00:44.068Z,11.60
2022-09-26T22:03:25.200Z,11.60
2022-09-26T22:21:37.739Z,11.70
2022-09-26T22:24:18.868Z,11.70
2022-09-26T22:27:00.122Z,11.70
2022-09-26T22:29:41.261Z,11.60
2022-09-26T22:32:22.545Z,11.60
2022-09-26T22:35:04.518Z,11.60
2022-09-26T22:42:50.219Z,11.70
2022-09-26T22:45:33.359Z,11.80
2022-09-26T22:48:14.611Z,11.80
2022-09-26T22:50:56.698Z,11.90
2022-09-26T22:53:39.156Z,11.90
2022-09-26T22:56:20.373Z,11.80
2022-09-26T23:02:07.257Z,11.90
2022-09-26T23:04:48.492Z,11.90
2022-09-26T23:07:30.789Z,11.90
2022-09-26T23:10:12.635Z,11.90
2022-09-26T23:12:53.683Z,11.90
2022-09-26T23:15:34.760Z,11.90
2022-09-26T23:21:19.751Z,11.90
2022-09-26T23:24:00.965Z,12.00
2022-09-26T23:26:42.126Z,12.00
2022-09-26T23:29:23.419Z,12.00
2022-09-26T23:32:04.549Z,12.00
2022-09-26T23:34:45.601Z,12.10
2022-09-26T23:37:26.953Z,12.10
2022-09-26T23:45:13.834Z,12.10
2022-09-26T23:47:54.890Z,12.00
2022-09-26T23:50:35.973Z,12.10
2022-09-26T23:53:17.231Z,12.10
2022-09-26T23:56:03.784Z,12.10
2022-09-26T23:58:44.931Z,12.10
